sensor_id;sensor_type;location;lat;lon;timestamp;temperature;humidity
9215;DHT22;4642;51.364;6.788;2023-11-21T00:00:54;7.10;99.90
9215;DHT22;4642;51.364;6.788;2023-11-21T00:03:20;7.10;99.90
9215;DHT22;4642;51.364;6.788;2023-11-21T00:05:48;7.10;99.90
9215;DHT22;4642;51.364;6.788;2023-11-21T00:08:14;7.00;99.90
9215;DHT22;4642;51.364;6.788;2023-11-21T00:10:39;7.00;99.90
9215;DHT22;4642;51.364;6.788;2023-11-21T00:13:05;7.00;99.90
9215;DHT22;4642;51.364;6.788;2023-11-21T00:15:30;7.00;99.90
9215;DHT22;4642;51.364;6.788;2023-11-21T00:17:56;7.00;99.90
9215;DHT22;4642;51.364;6.788;2023-11-21T00:20:21;7.00;99.90
9215;DHT22;4642;51.364;6.788;2023-11-21T00:22:47;7.00;99.90
9215;DHT22;4642;51.364;6.788;2023-11-21T00:25:13;7.00;99.90
9215;DHT22;4642;51.364;6.788;2023-11-21T00:27:41;7.00;99.90
9215;DHT22;4642;51.364;6.788;2023-11-21T00:30:07;7.00;99.90
9215;DHT22;4642;51.364;6.788;2023-11-21T00:32:35;7.00;99.90
9215;DHT22;4642;51.364;6.788;2023-11-21T00:35:01;7.00;99.90
9215;DHT22;4642;51.364;6.788;2023-11-21T00:37:26;7.00;99.90
9215;DHT22;4642;51.364;6.788;2023-11-21T00:39:52;7.00;99.90
9215;DHT22;4642;51.364;6.788;2023-11-21T00:42:17;7.00;99.90
9215;DHT22;4642;51.364;6.788;2023-11-21T00:44:43;7.00;99.90
9215;DHT22;4642;51.364;6.788;2023-11-21T00:47:08;7.00;99.90
9215;DHT22;4642;51.364;6.788;2023-11-21T00:49:34;7.00;99.90
9215;DHT22;4642;51.364;6.788;2023-11-21T00:51:59;7.30;99.90
9215;DHT22;4642;51.364;6.788;2023-11-21T00:54:27;6.90;99.90
9215;DHT22;4642;51.364;6.788;2023-11-21T00:56:52;6.90;99.90
9215;DHT22;4642;51.364;6.788;2023-11-21T00:59:18;6.90;99.90
9215;DHT22;4642;51.364;6.788;2023-11-21T01:01:43;6.80;99.90
9215;DHT22;4642;51.364;6.788;2023-11-21T01:04:09;6.80;99.90
9215;DHT22;4642;51.364;6.788;2023-11-21T01:06:35;6.80;99.90
9215;DHT22;4642;51.364;6.788;2023-11-21T01:09:01;6.70;99.90
9215;DHT22;4642;51.364;6.788;2023-11-21T01:11:26;6.70;99.90
9215;DHT22;4642;51.364;6.788;2023-11-21T01:13:52;6.50;99.90
9215;DHT22;4642;51.364;6.788;2023-11-21T01:16:18;6.50;99.90
9215;DHT22;4642;51.364;6.788;2023-11-21T01:18:44;6.50;99.90
9215;DHT22;4642;51.364;6.788;2023-11-21T01:21:09;6.50;99.90
9215;DHT22;4642;51.364;6.788;2023-11-21T01:23:35;6.40;99.90
9215;DHT22;4642;51.364;6.788;2023-11-21T01:26:00;6.40;99.90
9215;DHT22;4642;51.364;6.788;2023-11-21T01:28:26;6.50;99.90
9215;DHT22;4642;51.364;6.788;2023-11-21T01:30:52;6.50;99.90
9215;DHT22;4642;51.364;6.788;2023-11-21T01:33:22;6.50;99.90
9215;DHT22;4642;51.364;6.788;2023-11-21T01:35:47;6.50;99.90
9215;DHT22;4642;51.364;6.788;2023-11-21T01:38:13;6.50;99.90
9215;DHT22;4642;51.364;6.788;2023-11-21T01:40:40;6.50;99.90
9215;DHT22;4642;51.364;6.788;2023-11-21T01:43:05;6.50;99.90
9215;DHT22;4642;51.364;6.788;2023-11-21T01:45:31;6.50;99.90
9215;DHT22;4642;51.364;6.788;2023-11-21T01:47:59;6.50;99.90
9215;DHT22;4642;51.364;6.788;2023-11-21T01:50:26;6.50;99.90
9215;DHT22;4642;51.364;6.788;2023-11-21T01:52:52;6.50;99.90
9215;DHT22;4642;51.364;6.788;2023-11-21T01:55:18;6.60;99.90
9215;DHT22;4642;51.364;6.788;2023-11-21T01:57:44;6.60;99.90
9215;DHT22;4642;51.364;6.788;2023-11-21T02:00:11;6.60;99.90
9215;DHT22;4642;51.364;6.788;2023-11-21T02:02:45;6.60;99.90
9215;DHT22;4642;51.364;6.788;2023-11-21T02:05:12;6.60;99.90
9215;DHT22;4642;51.364;6.788;2023-11-21T02:07:41;6.60;99.90
9215;DHT22;4642;51.364;6.788;2023-11-21T02:10:08;6.60;99.90
9215;DHT22;4642;51.364;6.788;2023-11-21T02:12:34;6.70;99.90
9215;DHT22;4642;51.364;6.788;2023-11-21T02:15:02;6.70;99.90
9215;DHT22;4642;51.364;6.788;2023-11-21T02:17:30;6.70;99.90
9215;DHT22;4642;51.364;6.788;2023-11-21T02:19:58;6.80;99.90
9215;DHT22;4642;51.364;6.788;2023-11-21T02:22:26;6.80;99.90
9215;DHT22;4642;51.364;6.788;2023-11-21T02:24:53;6.80;99.90
9215;DHT22;4642;51.364;6.788;2023-11-21T02:27:19;6.80;99.90
9215;DHT22;4642;51.364;6.788;2023-11-21T02:29:47;6.80;99.90
9215;DHT22;4642;51.364;6.788;2023-11-21T02:32:13;6.80;99.90
9215;DHT22;4642;51.364;6.788;2023-11-21T02:34:38;6.90;99.90
9215;DHT22;4642;51.364;6.788;2023-11-21T02:37:04;6.90;99.90
9215;DHT22;4642;51.364;6.788;2023-11-21T02:39:31;6.90;99.90
9215;DHT22;4642;51.364;6.788;2023-11-21T02:41:57;6.90;99.90
9215;DHT22;4642;51.364;6.788;2023-11-21T02:44:22;6.90;99.90
9215;DHT22;4642;51.364;6.788;2023-11-21T02:46:48;6.90;99.90
9215;DHT22;4642;51.364;6.788;2023-11-21T02:49:13;6.90;99.90
9215;DHT22;4642;51.364;6.788;2023-11-21T02:51:39;6.90;99.90
9215;DHT22;4642;51.364;6.788;2023-11-21T02:54:06;6.90;99.90
9215;DHT22;4642;51.364;6.788;2023-11-21T02:56:33;7.00;99.90
9215;DHT22;4642;51.364;6.788;2023-11-21T02:59:00;7.00;99.90
9215;DHT22;4642;51.364;6.788;2023-11-21T03:01:26;7.00;99.90
9215;DHT22;4642;51.364;6.788;2023-11-21T03:03:53;6.90;99.90
9215;DHT22;4642;51.364;6.788;2023-11-21T03:06:19;7.00;99.90
9215;DHT22;4642;51.364;6.788;2023-11-21T03:08:45;7.00;99.90
9215;DHT22;4642;51.364;6.788;2023-11-21T03:11:11;7.00;99.90
9215;DHT22;4642;51.364;6.788;2023-11-21T03:13:36;7.00;99.90
9215;DHT22;4642;51.364;6.788;2023-11-21T03:16:02;7.00;99.90
9215;DHT22;4642;51.364;6.788;2023-11-21T03:18:28;7.00;99.90
9215;DHT22;4642;51.364;6.788;2023-11-21T03:20:54;7.00;99.90
9215;DHT22;4642;51.364;6.788;2023-11-21T03:23:20;7.00;99.90
9215;DHT22;4642;51.364;6.788;2023-11-21T03:25:45;7.00;99.90
9215;DHT22;4642;51.364;6.788;2023-11-21T03:28:11;7.00;99.90
9215;DHT22;4642;51.364;6.788;2023-11-21T03:30:37;7.10;99.90
9215;DHT22;4642;51.364;6.788;2023-11-21T03:33:02;7.10;99.90
9215;DHT22;4642;51.364;6.788;2023-11-21T03:35:28;7.10;99.90
9215;DHT22;4642;51.364;6.788;2023-11-21T03:37:54;7.10;99.90
9215;DHT22;4642;51.364;6.788;2023-11-21T03:40:19;7.10;99.90
9215;DHT22;4642;51.364;6.788;2023-11-21T03:42:46;7.10;99.90
9215;DHT22;4642;51.364;6.788;2023-11-21T03:45:12;7.10;99.90
9215;DHT22;4642;51.364;6.788;2023-11-21T03:47:38;7.10;99.90
9215;DHT22;4642;51.364;6.788;2023-11-21T03:50:04;7.10;99.90
9215;DHT22;4642;51.364;6.788;2023-11-21T03:52:30;7.10;99.90
9215;DHT22;4642;51.364;6.788;2023-11-21T03:54:56;7.20;99.90
9215;DHT22;4642;51.364;6.788;2023-11-21T03:57:21;7.10;99.90
9215;DHT22;4642;51.364;6.788;2023-11-21T03:59:47;7.20;99.90
9215;DHT22;4642;51.364;6.788;2023-11-21T04:02:13;7.20;99.90
9215;DHT22;4642;51.364;6.788;2023-11-21T04:04:38;7.20;99.90
9215;DHT22;4642;51.364;6.788;2023-11-21T04:07:04;7.20;99.90
9215;DHT22;4642;51.364;6.788;2023-11-21T04:09:30;7.20;99.90
9215;DHT22;4642;51.364;6.788;2023-11-21T04:11:55;7.20;99.90
9215;DHT22;4642;51.364;6.788;2023-11-21T04:14:22;7.20;99.90
9215;DHT22;4642;51.364;6.788;2023-11-21T04:16:48;7.20;99.90
9215;DHT22;4642;51.364;6.788;2023-11-21T04:19:14;7.20;99.90
9215;DHT22;4642;51.364;6.788;2023-11-21T04:21:42;7.20;99.90
9215;DHT22;4642;51.364;6.788;2023-11-21T04:24:08;7.20;99.90
9215;DHT22;4642;51.364;6.788;2023-11-21T04:26:33;7.20;99.90
9215;DHT22;4642;51.364;6.788;2023-11-21T04:28:59;7.20;99.90
9215;DHT22;4642;51.364;6.788;2023-11-21T04:31:24;7.30;99.90
9215;DHT22;4642;51.364;6.788;2023-11-21T04:33:50;7.30;99.90
9215;DHT22;4642;51.364;6.788;2023-11-21T04:36:15;7.30;99.90
9215;DHT22;4642;51.364;6.788;2023-11-21T04:38:41;7.30;99.90
9215;DHT22;4642;51.364;6.788;2023-11-21T04:41:07;7.30;99.90
9215;DHT22;4642;51.364;6.788;2023-11-21T04:43:33;7.30;99.90
9215;DHT22;4642;51.364;6.788;2023-11-21T04:45:58;7.30;99.90
9215;DHT22;4642;51.364;6.788;2023-11-21T04:48:24;7.30;99.90
9215;DHT22;4642;51.364;6.788;2023-11-21T04:50:50;7.30;99.90
9215;DHT22;4642;51.364;6.788;2023-11-21T04:53:17;7.30;99.90
9215;DHT22;4642;51.364;6.788;2023-11-21T04:55:42;7.30;99.90
9215;DHT22;4642;51.364;6.788;2023-11-21T04:58:08;7.30;99.90
9215;DHT22;4642;51.364;6.788;2023-11-21T05:00:34;7.30;99.90
9215;DHT22;4642;51.364;6.788;2023-11-21T05:02:59;7.30;99.90
9215;DHT22;4642;51.364;6.788;2023-11-21T05:05:26;7.40;99.90
9215;DHT22;4642;51.364;6.788;2023-11-21T05:07:52;7.30;99.90
9215;DHT22;4642;51.364;6.788;2023-11-21T05:10:19;7.30;99.90
9215;DHT22;4642;51.364;6.788;2023-11-21T05:12:44;7.30;99.90
9215;DHT22;4642;51.364;6.788;2023-11-21T05:15:14;7.30;99.90
9215;DHT22;4642;51.364;6.788;2023-11-21T05:17:40;7.30;99.90
9215;DHT22;4642;51.364;6.788;2023-11-21T05:20:13;7.30;99.90
9215;DHT22;4642;51.364;6.788;2023-11-21T05:22:42;7.30;99.90
9215;DHT22;4642;51.364;6.788;2023-11-21T05:25:08;7.30;99.90
9215;DHT22;4642;51.364;6.788;2023-11-21T05:27:34;7.30;99.90
9215;DHT22;4642;51.364;6.788;2023-11-21T05:30:02;7.30;99.90
9215;DHT22;4642;51.364;6.788;2023-11-21T05:32:28;7.30;99.90
9215;DHT22;4642;51.364;6.788;2023-11-21T05:34:53;7.30;99.90
9215;DHT22;4642;51.364;6.788;2023-11-21T05:37:19;7.30;99.90
9215;DHT22;4642;51.364;6.788;2023-11-21T05:39:44;7.30;99.90
9215;DHT22;4642;51.364;6.788;2023-11-21T05:42:10;7.30;99.90
9215;DHT22;4642;51.364;6.788;2023-11-21T05:44:36;7.30;99.90
9215;DHT22;4642;51.364;6.788;2023-11-21T05:47:02;7.30;99.90
9215;DHT22;4642;51.364;6.788;2023-11-21T05:49:29;7.30;99.90
9215;DHT22;4642;51.364;6.788;2023-11-21T05:51:55;7.30;99.90
9215;DHT22;4642;51.364;6.788;2023-11-21T05:54:21;7.40;99.90
9215;DHT22;4642;51.364;6.788;2023-11-21T05:56:47;7.40;99.90
9215;DHT22;4642;51.364;6.788;2023-11-21T05:59:12;7.40;99.90
9215;DHT22;4642;51.364;6.788;2023-11-21T06:01:38;7.40;99.90
9215;DHT22;4642;51.364;6.788;2023-11-21T06:04:04;7.40;99.90
9215;DHT22;4642;51.364;6.788;2023-11-21T06:06:30;7.40;99.90
9215;DHT22;4642;51.364;6.788;2023-11-21T06:08:57;7.50;99.90
9215;DHT22;4642;51.364;6.788;2023-11-21T06:11:22;7.40;99.90
9215;DHT22;4642;51.364;6.788;2023-11-21T06:13:48;7.40;99.90
9215;DHT22;4642;51.364;6.788;2023-11-21T06:16:15;7.50;99.90
9215;DHT22;4642;51.364;6.788;2023-11-21T06:18:42;7.50;99.90
9215;DHT22;4642;51.364;6.788;2023-11-21T06:21:12;7.50;99.90
9215;DHT22;4642;51.364;6.788;2023-11-21T06:23:38;7.50;99.90
9215;DHT22;4642;51.364;6.788;2023-11-21T06:26:04;7.50;99.90
9215;DHT22;4642;51.364;6.788;2023-11-21T06:28:31;7.50;99.90
9215;DHT22;4642;51.364;6.788;2023-11-21T06:30:57;7.50;99.90
9215;DHT22;4642;51.364;6.788;2023-11-21T06:33:23;7.50;99.90
9215;DHT22;4642;51.364;6.788;2023-11-21T06:35:49;7.50;99.90
9215;DHT22;4642;51.364;6.788;2023-11-21T06:38:15;7.50;99.90
9215;DHT22;4642;51.364;6.788;2023-11-21T06:40:40;7.60;99.90
9215;DHT22;4642;51.364;6.788;2023-11-21T06:43:06;7.60;99.90
9215;DHT22;4642;51.364;6.788;2023-11-21T06:45:33;7.60;99.90
9215;DHT22;4642;51.364;6.788;2023-11-21T06:47:59;7.60;99.90
9215;DHT22;4642;51.364;6.788;2023-11-21T06:50:25;7.60;99.90
9215;DHT22;4642;51.364;6.788;2023-11-21T06:52:50;7.60;99.90
9215;DHT22;4642;51.364;6.788;2023-11-21T06:55:16;7.70;99.90
9215;DHT22;4642;51.364;6.788;2023-11-21T06:57:41;7.70;99.90
9215;DHT22;4642;51.364;6.788;2023-11-21T07:00:08;7.70;99.90
9215;DHT22;4642;51.364;6.788;2023-11-21T07:02:34;7.70;99.90
9215;DHT22;4642;51.364;6.788;2023-11-21T07:05:00;7.70;99.90
9215;DHT22;4642;51.364;6.788;2023-11-21T07:07:28;7.80;99.90
9215;DHT22;4642;51.364;6.788;2023-11-21T07:09:54;7.80;99.90
9215;DHT22;4642;51.364;6.788;2023-11-21T07:12:19;7.80;99.90
9215;DHT22;4642;51.364;6.788;2023-11-21T07:14:45;7.80;99.90
9215;DHT22;4642;51.364;6.788;2023-11-21T07:17:13;7.80;99.90
9215;DHT22;4642;51.364;6.788;2023-11-21T07:19:39;7.80;99.90
9215;DHT22;4642;51.364;6.788;2023-11-21T07:22:05;7.90;99.90
9215;DHT22;4642;51.364;6.788;2023-11-21T07:24:32;7.90;99.90
9215;DHT22;4642;51.364;6.788;2023-11-21T07:26:57;7.90;99.90
9215;DHT22;4642;51.364;6.788;2023-11-21T07:29:24;7.90;99.90
9215;DHT22;4642;51.364;6.788;2023-11-21T07:31:54;7.90;99.90
9215;DHT22;4642;51.364;6.788;2023-11-21T07:34:21;7.90;99.90
9215;DHT22;4642;51.364;6.788;2023-11-21T07:36:47;7.90;99.90
9215;DHT22;4642;51.364;6.788;2023-11-21T07:39:12;8.00;99.90
9215;DHT22;4642;51.364;6.788;2023-11-21T07:41:40;8.00;99.90
9215;DHT22;4642;51.364;6.788;2023-11-21T07:44:10;8.00;99.90
9215;DHT22;4642;51.364;6.788;2023-11-21T07:46:36;8.00;99.90
9215;DHT22;4642;51.364;6.788;2023-11-21T07:49:01;8.00;99.90
9215;DHT22;4642;51.364;6.788;2023-11-21T07:51:27;8.10;99.90
9215;DHT22;4642;51.364;6.788;2023-11-21T07:53:52;8.10;99.90
9215;DHT22;4642;51.364;6.788;2023-11-21T07:56:18;8.10;99.90
9215;DHT22;4642;51.364;6.788;2023-11-21T07:58:43;8.10;99.90
9215;DHT22;4642;51.364;6.788;2023-11-21T08:01:10;8.20;99.90
9215;DHT22;4642;51.364;6.788;2023-11-21T08:03:35;8.20;99.90
9215;DHT22;4642;51.364;6.788;2023-11-21T08:06:01;8.30;99.90
9215;DHT22;4642;51.364;6.788;2023-11-21T08:08:28;8.30;99.90
9215;DHT22;4642;51.364;6.788;2023-11-21T08:10:54;8.30;99.90
9215;DHT22;4642;51.364;6.788;2023-11-21T08:13:23;8.40;99.90
9215;DHT22;4642;51.364;6.788;2023-11-21T08:15:49;8.40;99.90
9215;DHT22;4642;51.364;6.788;2023-11-21T08:18:15;8.40;99.90
9215;DHT22;4642;51.364;6.788;2023-11-21T08:20:41;8.40;99.90
9215;DHT22;4642;51.364;6.788;2023-11-21T08:23:07;8.50;99.90
9215;DHT22;4642;51.364;6.788;2023-11-21T08:25:32;8.40;99.90
9215;DHT22;4642;51.364;6.788;2023-11-21T08:28:00;8.50;99.90
9215;DHT22;4642;51.364;6.788;2023-11-21T08:30:25;8.50;99.90
9215;DHT22;4642;51.364;6.788;2023-11-21T08:32:54;8.50;99.90
9215;DHT22;4642;51.364;6.788;2023-11-21T08:35:23;8.50;99.90
9215;DHT22;4642;51.364;6.788;2023-11-21T08:37:51;8.50;99.90
9215;DHT22;4642;51.364;6.788;2023-11-21T08:40:18;8.50;99.90
9215;DHT22;4642;51.364;6.788;2023-11-21T08:42:44;8.60;99.90
9215;DHT22;4642;51.364;6.788;2023-11-21T08:45:11;8.60;99.90
9215;DHT22;4642;51.364;6.788;2023-11-21T08:47:38;8.60;99.90
9215;DHT22;4642;51.364;6.788;2023-11-21T08:50:05;8.60;99.90
9215;DHT22;4642;51.364;6.788;2023-11-21T08:52:33;8.60;99.90
9215;DHT22;4642;51.364;6.788;2023-11-21T08:54:59;8.60;99.90
9215;DHT22;4642;51.364;6.788;2023-11-21T08:57:28;8.60;99.90
9215;DHT22;4642;51.364;6.788;2023-11-21T08:59:53;8.70;99.90
9215;DHT22;4642;51.364;6.788;2023-11-21T09:02:25;8.70;99.90
9215;DHT22;4642;51.364;6.788;2023-11-21T09:04:51;8.70;99.90
9215;DHT22;4642;51.364;6.788;2023-11-21T09:07:18;8.70;99.90
9215;DHT22;4642;51.364;6.788;2023-11-21T09:09:48;8.70;99.90
9215;DHT22;4642;51.364;6.788;2023-11-21T09:12:15;8.70;99.90
9215;DHT22;4642;51.364;6.788;2023-11-21T09:14:40;8.80;99.90
9215;DHT22;4642;51.364;6.788;2023-11-21T09:17:06;8.80;99.90
9215;DHT22;4642;51.364;6.788;2023-11-21T09:19:37;8.80;99.90
9215;DHT22;4642;51.364;6.788;2023-11-21T09:22:03;8.80;99.90
9215;DHT22;4642;51.364;6.788;2023-11-21T09:24:33;8.80;99.90
9215;DHT22;4642;51.364;6.788;2023-11-21T09:26:59;8.80;99.90
9215;DHT22;4642;51.364;6.788;2023-11-21T09:29:26;8.90;99.90
9215;DHT22;4642;51.364;6.788;2023-11-21T09:31:51;8.90;99.90
9215;DHT22;4642;51.364;6.788;2023-11-21T09:34:17;8.90;99.90
9215;DHT22;4642;51.364;6.788;2023-11-21T09:36:46;9.00;99.90
9215;DHT22;4642;51.364;6.788;2023-11-21T09:39:13;8.90;99.90
9215;DHT22;4642;51.364;6.788;2023-11-21T09:41:51;9.00;99.90
9215;DHT22;4642;51.364;6.788;2023-11-21T09:44:18;9.00;99.90
9215;DHT22;4642;51.364;6.788;2023-11-21T09:46:48;9.00;99.90
9215;DHT22;4642;51.364;6.788;2023-11-21T09:49:18;9.10;99.90
9215;DHT22;4642;51.364;6.788;2023-11-21T09:51:48;9.10;99.90
9215;DHT22;4642;51.364;6.788;2023-11-21T09:54:15;9.10;99.90
9215;DHT22;4642;51.364;6.788;2023-11-21T09:56:43;9.10;99.90
9215;DHT22;4642;51.364;6.788;2023-11-21T09:59:13;9.10;99.90
9215;DHT22;4642;51.364;6.788;2023-11-21T10:01:41;9.10;99.90
9215;DHT22;4642;51.364;6.788;2023-11-21T10:04:08;9.10;99.90
9215;DHT22;4642;51.364;6.788;2023-11-21T10:06:39;9.10;99.90
9215;DHT22;4642;51.364;6.788;2023-11-21T10:09:04;9.10;99.90
9215;DHT22;4642;51.364;6.788;2023-11-21T10:11:40;9.10;99.90
9215;DHT22;4642;51.364;6.788;2023-11-21T10:14:08;9.10;99.90
9215;DHT22;4642;51.364;6.788;2023-11-21T10:16:36;9.10;99.90
9215;DHT22;4642;51.364;6.788;2023-11-21T10:19:05;9.10;99.90
9215;DHT22;4642;51.364;6.788;2023-11-21T10:21:32;9.10;99.90
9215;DHT22;4642;51.364;6.788;2023-11-21T10:23:58;9.10;99.90
9215;DHT22;4642;51.364;6.788;2023-11-21T10:26:26;9.10;99.90
9215;DHT22;4642;51.364;6.788;2023-11-21T10:28:59;9.20;99.90
9215;DHT22;4642;51.364;6.788;2023-11-21T10:31:31;9.30;99.90
9215;DHT22;4642;51.364;6.788;2023-11-21T10:36:37;9.30;99.90
9215;DHT22;4642;51.364;6.788;2023-11-21T10:39:03;9.30;99.90
9215;DHT22;4642;51.364;6.788;2023-11-21T10:41:28;9.30;99.90
9215;DHT22;4642;51.364;6.788;2023-11-21T10:43:54;9.40;99.90
9215;DHT22;4642;51.364;6.788;2023-11-21T10:46:21;9.40;99.90
9215;DHT22;4642;51.364;6.788;2023-11-21T10:48:52;9.50;99.90
9215;DHT22;4642;51.364;6.788;2023-11-21T10:51:20;9.50;99.90
9215;DHT22;4642;51.364;6.788;2023-11-21T10:53:46;9.50;99.90
9215;DHT22;4642;51.364;6.788;2023-11-21T10:56:13;9.40;99.90
9215;DHT22;4642;51.364;6.788;2023-11-21T10:58:43;9.50;99.90
9215;DHT22;4642;51.364;6.788;2023-11-21T11:01:09;9.50;99.90
9215;DHT22;4642;51.364;6.788;2023-11-21T11:03:37;9.50;99.90
9215;DHT22;4642;51.364;6.788;2023-11-21T11:06:05;9.50;99.90
9215;DHT22;4642;51.364;6.788;2023-11-21T11:08:37;9.50;99.90
9215;DHT22;4642;51.364;6.788;2023-11-21T11:11:04;9.50;99.90
9215;DHT22;4642;51.364;6.788;2023-11-21T11:13:30;9.50;99.90
9215;DHT22;4642;51.364;6.788;2023-11-21T11:15:59;9.50;99.90
9215;DHT22;4642;51.364;6.788;2023-11-21T11:18:25;9.50;99.90
9215;DHT22;4642;51.364;6.788;2023-11-21T11:20:52;9.60;99.90
9215;DHT22;4642;51.364;6.788;2023-11-21T11:28:54;9.80;99.90
9215;DHT22;4642;51.364;6.788;2023-11-21T11:34:26;9.70;99.90
9215;DHT22;4642;51.364;6.788;2023-11-21T11:37:01;9.70;99.90
9215;DHT22;4642;51.364;6.788;2023-11-21T11:39:41;9.70;99.90
9215;DHT22;4642;51.364;6.788;2023-11-21T11:42:15;9.70;99.90
9215;DHT22;4642;51.364;6.788;2023-11-21T11:47:15;9.80;99.90
9215;DHT22;4642;51.364;6.788;2023-11-21T11:50:08;9.90;99.90
9215;DHT22;4642;51.364;6.788;2023-11-21T11:52:45;9.90;99.90
9215;DHT22;4642;51.364;6.788;2023-11-21T11:55:12;9.90;99.90
9215;DHT22;4642;51.364;6.788;2023-11-21T11:57:48;9.90;99.90
9215;DHT22;4642;51.364;6.788;2023-11-21T12:02:59;9.90;99.90
9215;DHT22;4642;51.364;6.788;2023-11-21T12:05:27;9.90;99.90
9215;DHT22;4642;51.364;6.788;2023-11-21T12:07:54;9.90;99.90
9215;DHT22;4642;51.364;6.788;2023-11-21T12:10:27;10.00;99.90
9215;DHT22;4642;51.364;6.788;2023-11-21T12:12:59;10.00;99.90
9215;DHT22;4642;51.364;6.788;2023-11-21T12:15:26;10.00;99.90
9215;DHT22;4642;51.364;6.788;2023-11-21T12:17:54;10.00;99.90
9215;DHT22;4642;51.364;6.788;2023-11-21T12:20:21;10.00;99.90
9215;DHT22;4642;51.364;6.788;2023-11-21T12:22:49;10.00;99.90
9215;DHT22;4642;51.364;6.788;2023-11-21T12:27:46;10.10;99.90
9215;DHT22;4642;51.364;6.788;2023-11-21T12:30:15;10.10;99.90
9215;DHT22;4642;51.364;6.788;2023-11-21T12:32:41;10.20;99.90
9215;DHT22;4642;51.364;6.788;2023-11-21T12:35:09;10.20;99.90
9215;DHT22;4642;51.364;6.788;2023-11-21T12:37:36;10.30;99.90
9215;DHT22;4642;51.364;6.788;2023-11-21T12:40:05;10.30;99.90
9215;DHT22;4642;51.364;6.788;2023-11-21T12:42:32;10.40;99.90
9215;DHT22;4642;51.364;6.788;2023-11-21T12:47:43;10.50;99.90
9215;DHT22;4642;51.364;6.788;2023-11-21T12:50:10;10.50;99.90
9215;DHT22;4642;51.364;6.788;2023-11-21T12:52:44;10.50;99.90
9215;DHT22;4642;51.364;6.788;2023-11-21T12:55:15;10.50;99.90
9215;DHT22;4642;51.364;6.788;2023-11-21T12:57:44;10.50;99.90
9215;DHT22;4642;51.364;6.788;2023-11-21T13:00:15;10.50;99.90
9215;DHT22;4642;51.364;6.788;2023-11-21T13:02:52;10.50;99.90
9215;DHT22;4642;51.364;6.788;2023-11-21T13:05:34;10.50;99.90
9215;DHT22;4642;51.364;6.788;2023-11-21T13:08:02;10.50;99.90
9215;DHT22;4642;51.364;6.788;2023-11-21T13:10:34;10.50;99.90
9215;DHT22;4642;51.364;6.788;2023-11-21T13:13:02;10.40;99.90
9215;DHT22;4642;51.364;6.788;2023-11-21T13:15:31;10.40;99.90
9215;DHT22;4642;51.364;6.788;2023-11-21T13:17:58;10.40;99.90
9215;DHT22;4642;51.364;6.788;2023-11-21T13:20:27;10.40;99.90
9215;DHT22;4642;51.364;6.788;2023-11-21T13:22:55;10.40;99.90
9215;DHT22;4642;51.364;6.788;2023-11-21T13:25:25;10.30;99.90
9215;DHT22;4642;51.364;6.788;2023-11-21T13:27:53;10.30;99.90
9215;DHT22;4642;51.364;6.788;2023-11-21T13:30:19;10.30;99.90
9215;DHT22;4642;51.364;6.788;2023-11-21T13:32:52;10.30;99.90
9215;DHT22;4642;51.364;6.788;2023-11-21T13:35:18;10.30;99.90
9215;DHT22;4642;51.364;6.788;2023-11-21T13:37:50;10.30;99.90
9215;DHT22;4642;51.364;6.788;2023-11-21T13:40:20;10.20;99.90
9215;DHT22;4642;51.364;6.788;2023-11-21T13:42:48;10.20;99.90
9215;DHT22;4642;51.364;6.788;2023-11-21T13:45:14;10.20;99.90
9215;DHT22;4642;51.364;6.788;2023-11-21T13:47:40;10.20;99.90
9215;DHT22;4642;51.364;6.788;2023-11-21T13:50:06;10.20;99.90
9215;DHT22;4642;51.364;6.788;2023-11-21T13:52:43;10.20;99.90
9215;DHT22;4642;51.364;6.788;2023-11-21T13:55:10;10.20;99.90
9215;DHT22;4642;51.364;6.788;2023-11-21T13:57:41;10.20;99.90
9215;DHT22;4642;51.364;6.788;2023-11-21T14:00:12;10.20;99.90
9215;DHT22;4642;51.364;6.788;2023-11-21T14:02:57;10.20;99.90
9215;DHT22;4642;51.364;6.788;2023-11-21T14:05:26;10.20;99.90
9215;DHT22;4642;51.364;6.788;2023-11-21T14:07:55;10.10;99.90
9215;DHT22;4642;51.364;6.788;2023-11-21T14:10:25;10.10;99.90
9215;DHT22;4642;51.364;6.788;2023-11-21T14:12:51;10.10;99.90
9215;DHT22;4642;51.364;6.788;2023-11-21T14:15:17;10.20;99.90
9215;DHT22;4642;51.364;6.788;2023-11-21T14:17:44;10.10;99.90
9215;DHT22;4642;51.364;6.788;2023-11-21T14:20:10;10.10;99.90
9215;DHT22;4642;51.364;6.788;2023-11-21T14:22:43;10.00;99.90
9215;DHT22;4642;51.364;6.788;2023-11-21T14:25:09;10.00;99.90
9215;DHT22;4642;51.364;6.788;2023-11-21T14:27:36;10.00;99.90
9215;DHT22;4642;51.364;6.788;2023-11-21T14:30:02;10.00;99.90
9215;DHT22;4642;51.364;6.788;2023-11-21T14:32:28;10.00;99.90
9215;DHT22;4642;51.364;6.788;2023-11-21T14:34:54;10.00;99.90
9215;DHT22;4642;51.364;6.788;2023-11-21T14:37:19;10.00;99.90
9215;DHT22;4642;51.364;6.788;2023-11-21T14:39:45;10.00;99.90
9215;DHT22;4642;51.364;6.788;2023-11-21T14:42:14;10.00;99.90
9215;DHT22;4642;51.364;6.788;2023-11-21T14:44:49;9.90;99.90
9215;DHT22;4642;51.364;6.788;2023-11-21T14:47:15;9.90;99.90
9215;DHT22;4642;51.364;6.788;2023-11-21T14:49:42;9.90;99.90
9215;DHT22;4642;51.364;6.788;2023-11-21T14:52:19;9.90;99.90
9215;DHT22;4642;51.364;6.788;2023-11-21T14:55:07;9.90;99.90
9215;DHT22;4642;51.364;6.788;2023-11-21T14:57:50;9.90;99.90
9215;DHT22;4642;51.364;6.788;2023-11-21T15:00:20;9.80;99.90
9215;DHT22;4642;51.364;6.788;2023-11-21T15:03:01;9.80;99.90
9215;DHT22;4642;51.364;6.788;2023-11-21T15:05:27;9.80;99.90
9215;DHT22;4642;51.364;6.788;2023-11-21T15:07:54;9.80;99.90
9215;DHT22;4642;51.364;6.788;2023-11-21T15:10:23;9.80;99.90
9215;DHT22;4642;51.364;6.788;2023-11-21T15:13:03;9.80;99.90
9215;DHT22;4642;51.364;6.788;2023-11-21T15:15:29;9.80;99.90
9215;DHT22;4642;51.364;6.788;2023-11-21T15:17:57;9.80;99.90
9215;DHT22;4642;51.364;6.788;2023-11-21T15:20:22;9.80;99.90
9215;DHT22;4642;51.364;6.788;2023-11-21T15:22:48;9.70;99.90
9215;DHT22;4642;51.364;6.788;2023-11-21T15:25:13;9.70;99.90
9215;DHT22;4642;51.364;6.788;2023-11-21T15:27:39;9.70;99.90
9215;DHT22;4642;51.364;6.788;2023-11-21T15:30:06;9.70;99.90
9215;DHT22;4642;51.364;6.788;2023-11-21T15:32:32;9.70;99.90
9215;DHT22;4642;51.364;6.788;2023-11-21T15:34:58;9.60;99.90
9215;DHT22;4642;51.364;6.788;2023-11-21T15:37:23;9.60;99.90
9215;DHT22;4642;51.364;6.788;2023-11-21T15:39:51;9.60;99.90
9215;DHT22;4642;51.364;6.788;2023-11-21T15:42:17;9.60;99.90
9215;DHT22;4642;51.364;6.788;2023-11-21T15:44:43;9.50;99.90
9215;DHT22;4642;51.364;6.788;2023-11-21T15:47:08;9.50;99.90
9215;DHT22;4642;51.364;6.788;2023-11-21T15:49:34;9.50;99.90
9215;DHT22;4642;51.364;6.788;2023-11-21T15:52:02;9.50;99.90
9215;DHT22;4642;51.364;6.788;2023-11-21T15:54:29;9.50;99.90
9215;DHT22;4642;51.364;6.788;2023-11-21T15:56:55;9.50;99.90
9215;DHT22;4642;51.364;6.788;2023-11-21T15:59:23;9.50;99.90
9215;DHT22;4642;51.364;6.788;2023-11-21T16:01:52;9.50;99.90
9215;DHT22;4642;51.364;6.788;2023-11-21T16:04:18;9.50;99.90
9215;DHT22;4642;51.364;6.788;2023-11-21T16:06:45;9.50;99.90
9215;DHT22;4642;51.364;6.788;2023-11-21T16:09:11;9.50;99.90
9215;DHT22;4642;51.364;6.788;2023-11-21T16:11:51;9.50;99.90
9215;DHT22;4642;51.364;6.788;2023-11-21T16:14:19;9.50;99.90
9215;DHT22;4642;51.364;6.788;2023-11-21T16:16:49;9.40;99.90
9215;DHT22;4642;51.364;6.788;2023-11-21T16:19:15;9.30;99.90
9215;DHT22;4642;51.364;6.788;2023-11-21T16:21:40;9.30;99.90
9215;DHT22;4642;51.364;6.788;2023-11-21T16:24:06;9.30;99.90
9215;DHT22;4642;51.364;6.788;2023-11-21T16:26:32;9.20;99.90
9215;DHT22;4642;51.364;6.788;2023-11-21T16:28:59;9.20;99.90
9215;DHT22;4642;51.364;6.788;2023-11-21T16:31:24;9.10;99.90
9215;DHT22;4642;51.364;6.788;2023-11-21T16:33:50;9.10;99.90
9215;DHT22;4642;51.364;6.788;2023-11-21T16:36:15;9.00;99.90